sensor_id;sensor_type;location;lat;lon;timestamp;pressure;altitude;pressure_sealevel;temperature;humidity
22775;BME280;11554;51.106;3.684;2024-03-29T00:00:00;98890.56;;;8.46;100.0
22775;BME280;11554;51.106;3.684;2024-03-29T00:05:00;98887.40000000001;;;8.48;100.0
22775;BME280;11554;51.106;3.684;2024-03-29T00:10:00;98895.37;;;8.51;100.0
22775;BME280;11554;51.106;3.684;2024-03-29T00:15:00;98895.56999999999;;;8.59;100.0
22775;BME280;11554;51.106;3.684;2024-03-29T00:20:00;98891.88;;;8.60;100.0
22775;BME280;11554;51.106;3.684;2024-03-29T00:25:00;98900.59999999999;;;8.65;100.0
22775;BME280;11554;51.106;3.684;2024-03-29T00:30:00;98899.67;;;8.66;100.0
22775;BME280;11554;51.106;3.684;2024-03-29T00:35:00;98897.75;;;8.72;100.0
22775;BME280;11554;51.106;3.684;2024-03-29T00:40:00;98904.90999999999;;;8.72;100.0
22775;BME280;11554;51.106;3.684;2024-03-29T00:45:00;98918.94;;;8.72;100.0
22775;BME280;11554;51.106;3.684;2024-03-29T00:50:00;98925.48000000001;;;8.71;100.0
22775;BME280;11554;51.106;3.684;2024-03-29T00:55:00;98923.27;;;8.77;100.0
22775;BME280;11554;51.106;3.684;2024-03-29T01:00:00;98912.69;;;8.77;100.0
22775;BME280;11554;51.106;3.684;2024-03-29T01:05:00;98922.05;;;8.75;100.0
22775;BME280;11554;51.106;3.684;2024-03-29T01:10:00;98915.78;;;8.75;100.0
22775;BME280;11554;51.106;3.684;2024-03-29T01:15:00;98916.81999999999;;;8.73;100.0
22775;BME280;11554;51.106;3.684;2024-03-29T01:20:00;98904.3;;;8.77;100.0
22775;BME280;11554;51.106;3.684;2024-03-29T01:25:00;98889.29000000001;;;8.82;100.0
22775;BME280;11554;51.106;3.684;2024-03-29T01:30:00;98891.02;;;8.85;100.0
22775;BME280;11554;51.106;3.684;2024-03-29T01:35:00;98886.72;;;8.85;100.0
22775;BME280;11554;51.106;3.684;2024-03-29T01:40:00;98874.11;;;8.88;100.0
22775;BME280;11554;51.106;3.684;2024-03-29T01:45:00;98893.81;;;8.88;100.0
22775;BME280;11554;51.106;3.684;2024-03-29T01:50:00;98885.99;;;8.88;100.0
22775;BME280;11554;51.106;3.684;2024-03-29T01:55:00;98894.23000000001;;;8.85;100.0
22775;BME280;11554;51.106;3.684;2024-03-29T02:00:00;98899.84;;;8.84;100.0
22775;BME280;11554;51.106;3.684;2024-03-29T02:05:00;98902.23;;;8.81;100.0
22775;BME280;11554;51.106;3.684;2024-03-29T02:10:00;98902.97;;;8.79;100.0
22775;BME280;11554;51.106;3.684;2024-03-29T02:15:00;98917.66;;;8.77;100.0
22775;BME280;11554;51.106;3.684;2024-03-29T02:20:00;98922.97;;;8.78;100.0
22775;BME280;11554;51.106;3.684;2024-03-29T02:25:00;98892.21;;;8.78;100.0
22775;BME280;11554;51.106;3.684;2024-03-29T02:30:00;98922.92;;;8.78;100.0
22775;BME280;11554;51.106;3.684;2024-03-29T02:35:00;98911.99;;;8.76;100.0
22775;BME280;11554;51.106;3.684;2024-03-29T02:40:00;98939.29000000001;;;8.77;100.0
22775;BME280;11554;51.106;3.684;2024-03-29T02:45:00;98929.42;;;8.75;100.0
22775;BME280;11554;51.106;3.684;2024-03-29T02:50:00;98944.76;;;8.73;100.0
22775;BME280;11554;51.106;3.684;2024-03-29T02:55:00;98940.83;;;8.69;100.0
22775;BME280;11554;51.106;3.684;2024-03-29T03:00:00;98957.81;;;8.62;100.0
22775;BME280;11554;51.106;3.684;2024-03-29T03:05:00;98954.45999999999;;;8.53;100.0
22775;BME280;11554;51.106;3.684;2024-03-29T03:10:00;98950.03;;;8.42;100.0
22775;BME280;11554;51.106;3.684;2024-03-29T03:15:00;98954.38;;;8.30;100.0
22775;BME280;11554;51.106;3.684;2024-03-29T03:20:00;98955.06;;;8.18;100.0
22775;BME280;11554;51.106;3.684;2024-03-29T03:25:00;98963.23;;;8.07;100.0
22775;BME280;11554;51.106;3.684;2024-03-29T03:30:00;98962.83;;;7.96;100.0
22775;BME280;11554;51.106;3.684;2024-03-29T03:35:00;98973.95;;;7.85;100.0
22775;BME280;11554;51.106;3.684;2024-03-29T03:40:00;98978.06;;;7.78;100.0
22775;BME280;11554;51.106;3.684;2024-03-29T03:45:00;98983.81000000001;;;7.68;100.0
22775;BME280;11554;51.106;3.684;2024-03-29T03:50:00;98980.76999999999;;;7.60;100.0
22775;BME280;11554;51.106;3.684;2024-03-29T03:55:00;98988.3;;;7.54;100.0
22775;BME280;11554;51.106;3.684;2024-03-29T04:00:00;98983.29;;;7.49;100.0
22775;BME280;11554;51.106;3.684;2024-03-29T04:05:00;98986.91;;;7.47;100.0
22775;BME280;11554;51.106;3.684;2024-03-29T04:10:00;98990.77;;;7.45;100.0
22775;BME280;11554;51.106;3.684;2024-03-29T04:15:00;98983.67;;;7.42;100.0
22775;BME280;11554;51.106;3.684;2024-03-29T04:20:00;98991.93000000001;;;7.40;100.0
22775;BME280;11554;51.106;3.684;2024-03-29T04:25:00;99003.63;;;7.37;100.0
22775;BME280;11554;51.106;3.684;2024-03-29T04:30:00;99002.31;;;7.33;100.0
22775;BME280;11554;51.106;3.684;2024-03-29T04:35:00;98978.68999999999;;;7.27;100.0
22775;BME280;11554;51.106;3.684;2024-03-29T04:40:00;98978.68999999999;;;7.23;100.0
22775;BME280;11554;51.106;3.684;2024-03-29T04:45:00;98966.69;;;7.19;100.0
22775;BME280;11554;51.106;3.684;2024-03-29T04:50:00;98977.77;;;7.14;100.0
22775;BME280;11554;51.106;3.684;2024-03-29T04:55:00;98975.04000000001;;;7.12;100.0
22775;BME280;11554;51.106;3.684;2024-03-29T05:00:00;98980.83;;;7.10;100.0
22775;BME280;11554;51.106;3.684;2024-03-29T05:05:00;98980.28;;;7.09;100.0
22775;BME280;11554;51.106;3.684;2024-03-29T05:10:00;98982.03;;;7.08;100.0
22775;BME280;11554;51.106;3.684;2024-03-29T05:15:00;99000.9;;;7.06;100.0
22775;BME280;11554;51.106;3.684;2024-03-29T05:20:00;99023.08;;;7.07;100.0
22775;BME280;11554;51.106;3.684;2024-03-29T05:25:00;99020.11;;;7.07;100.0
22775;BME280;11554;51.106;3.684;2024-03-29T05:30:00;99027.98;;;7.07;100.0
22775;BME280;11554;51.106;3.684;2024-03-29T05:35:00;99039.95;;;7.07;100.0
22775;BME280;11554;51.106;3.684;2024-03-29T05:40:00;99049.2;;;7.07;100.0
22775;BME280;11554;51.106;3.684;2024-03-29T05:45:00;99055.81;;;7.08;100.0
22775;BME280;11554;51.106;3.684;2024-03-29T05:50:00;99047.67;;;7.09;100.0
22775;BME280;11554;51.106;3.684;2024-03-29T05:55:00;99061.44;;;7.13;100.0
22775;BME280;11554;51.106;3.684;2024-03-29T06:00:00;99075.3;;;7.18;100.0
22775;BME280;11554;51.106;3.684;2024-03-29T06:05:00;99069.18;;;7.21;100.0
22775;BME280;11554;51.106;3.684;2024-03-29T06:10:00;99062.72;;;7.26;100.0
22775;BME280;11554;51.106;3.684;2024-03-29T06:15:00;99065.56;;;7.30;100.0
22775;BME280;11554;51.106;3.684;2024-03-29T06:20:00;99035.24;;;7.25;100.0
22775;BME280;11554;51.106;3.684;2024-03-29T06:25:00;99054.15000000001;;;7.28;100.0
22775;BME280;11554;51.106;3.684;2024-03-29T06:30:00;99056.73000000001;;;7.37;100.0
22775;BME280;11554;51.106;3.684;2024-03-29T06:35:00;99071.06;;;7.49;100.0
22775;BME280;11554;51.106;3.684;2024-03-29T06:40:00;99086.08;;;7.65;100.0
22775;BME280;11554;51.106;3.684;2024-03-29T06:45:00;99090.12;;;7.66;100.0
22775;BME280;11554;51.106;3.684;2024-03-29T06:50:00;99083.23000000001;;;7.65;100.0
22775;BME280;11554;51.106;3.684;2024-03-29T06:55:00;99092.44;;;7.60;100.0
22775;BME280;11554;51.106;3.684;2024-03-29T07:00:00;99102.95;;;7.61;100.0
22775;BME280;11554;51.106;3.684;2024-03-29T07:05:00;99092.08;;;7.65;100.0
22775;BME280;11554;51.106;3.684;2024-03-29T07:10:00;99100.95;;;7.68;100.0
22775;BME280;11554;51.106;3.684;2024-03-29T07:15:00;99112.08;;;7.88;100.0
22775;BME280;11554;51.106;3.684;2024-03-29T07:20:00;99101.4;;;8.15;100.0
22775;BME280;11554;51.106;3.684;2024-03-29T07:25:00;99089.18;;;8.32;100.0
22775;BME280;11554;51.106;3.684;2024-03-29T07:30:00;99078.54999999999;;;8.32;100.0
22775;BME280;11554;51.106;3.684;2024-03-29T07:35:00;99070.39;;;8.38;100.0
22775;BME280;11554;51.106;3.684;2024-03-29T07:40:00;99084.2;;;8.43;100.0
22775;BME280;11554;51.106;3.684;2024-03-29T07:45:00;99087.83;;;8.57;100.0
22775;BME280;11554;51.106;3.684;2024-03-29T07:50:00;99102.48;;;8.63;100.0
22775;BME280;11554;51.106;3.684;2024-03-29T07:55:00;99095.51;;;8.59;100.0
22775;BME280;11554;51.106;3.684;2024-03-29T08:00:00;99105.05;;;8.62;100.0
22775;BME280;11554;51.106;3.684;2024-03-29T08:05:00;99101.26000000001;;;8.80;100.0
22775;BME280;11554;51.106;3.684;2024-03-29T08:10:00;99113.76000000001;;;8.84;100.0
22775;BME280;11554;51.106;3.684;2024-03-29T08:15:00;99128.43000000001;;;8.85;100.0
22775;BME280;11554;51.106;3.684;2024-03-29T08:20:00;99131.56;;;8.97;100.0
22775;BME280;11554;51.106;3.684;2024-03-29T08:25:00;99138.83;;;8.98;100.0
22775;BME280;11554;51.106;3.684;2024-03-29T08:30:00;99132.26;;;9.00;100.0
22775;BME280;11554;51.106;3.684;2024-03-29T08:35:00;99130.55;;;9.01;100.0
22775;BME280;11554;51.106;3.684;2024-03-29T08:40:00;99130.40999999999;;;9.26;100.0
22775;BME280;11554;51.106;3.684;2024-03-29T08:45:00;99141.23;;;9.55;100.0
22775;BME280;11554;51.106;3.684;2024-03-29T08:50:00;99141.71;;;9.72;100.0
22775;BME280;11554;51.106;3.684;2024-03-29T08:55:00;99147.88;;;9.87;100.0
22775;BME280;11554;51.106;3.684;2024-03-29T09:00:00;99147.27;;;10.11;100.0
22775;BME280;11554;51.106;3.684;2024-03-29T09:05:00;99153.75;;;10.39;100.0
22775;BME280;11554;51.106;3.684;2024-03-29T09:10:00;99158.59;;;10.48;100.0
22775;BME280;11554;51.106;3.684;2024-03-29T09:15:00;99174.69;;;10.60;100.0
22775;BME280;11554;51.106;3.684;2024-03-29T09:20:00;99186.3;;;11.06;100.0
22775;BME280;11554;51.106;3.684;2024-03-29T09:25:00;99177.42;;;11.14;100.0
22775;BME280;11554;51.106;3.684;2024-03-29T09:30:00;99156.0;;;11.70;100.0
22775;BME280;11554;51.106;3.684;2024-03-29T09:35:00;99150.73;;;12.41;100.0
22775;BME280;11554;51.106;3.684;2024-03-29T09:40:00;99150.86;;;13.02;100.0
22775;BME280;11554;51.106;3.684;2024-03-29T09:45:01;99162.53;;;12.99;100.0
22775;BME280;11554;51.106;3.684;2024-03-29T09:50:02;99161.49;;;12.97;100.0
22775;BME280;11554;51.106;3.684;2024-03-29T09:55:00;99155.62999999999;;;13.10;100.0
22775;BME280;11554;51.106;3.684;2024-03-29T10:00:00;99190.23;;;13.58;100.0
22775;BME280;11554;51.106;3.684;2024-03-29T10:05:00;99176.22;;;13.26;100.0
22775;BME280;11554;51.106;3.684;2024-03-29T10:10:00;99167.02;;;13.30;100.0
22775;BME280;11554;51.106;3.684;2024-03-29T10:15:00;99183.42;;;14.60;100.0
22775;BME280;11554;51.106;3.684;2024-03-29T10:20:00;99190.73;;;14.47;100.0
22775;BME280;11554;51.106;3.684;2024-03-29T10:25:00;99206.3;;;14.65;100.0
22775;BME280;11554;51.106;3.684;2024-03-29T10:30:00;99209.22;;;14.51;100.0
22775;BME280;11554;51.106;3.684;2024-03-29T10:35:00;99215.44;;;14.15;100.0
22775;BME280;11554;51.106;3.684;2024-03-29T10:40:00;99188.94;;;14.37;100.0
22775;BME280;11554;51.106;3.684;2024-03-29T10:45:00;99183.51;;;14.32;100.0
22775;BME280;11554;51.106;3.684;2024-03-29T10:50:00;99171.39;;;14.52;100.0
22775;BME280;11554;51.106;3.684;2024-03-29T10:55:00;99176.37;;;14.54;100.0
22775;BME280;11554;51.106;3.684;2024-03-29T11:00:02;99186.23999999999;;;14.93;100.0
22775;BME280;11554;51.106;3.684;2024-03-29T11:05:01;99188.76000000001;;;15.39;100.0
22775;BME280;11554;51.106;3.684;2024-03-29T11:10:00;99192.47;;;15.38;100.0
22775;BME280;11554;51.106;3.684;2024-03-29T11:15:02;99201.61;;;15.56;100.0
22775;BME280;11554;51.106;3.684;2024-03-29T11:20:00;99220.46;;;15.62;100.0
22775;BME280;11554;51.106;3.684;2024-03-29T11:25:00;99208.23000000001;;;16.14;100.0
22775;BME280;11554;51.106;3.684;2024-03-29T11:30:01;99219.3;;;16.04;100.0
22775;BME280;11554;51.106;3.684;2024-03-29T11:35:00;99220.74;;;16.38;100.0
22775;BME280;11554;51.106;3.684;2024-03-29T11:40:00;99227.14;;;16.87;100.0
22775;BME280;11554;51.106;3.684;2024-03-29T11:45:00;99212.81;;;16.56;100.0
22775;BME280;11554;51.106;3.684;2024-03-29T11:50:00;99213.73;;;16.46;100.0
22775;BME280;11554;51.106;3.684;2024-03-29T11:55:00;99213.28;;;16.17;100.0
22775;BME280;11554;51.106;3.684;2024-03-29T12:00:00;99229.47;;;16.16;100.0
22775;BME280;11554;51.106;3.684;2024-03-29T12:05:00;99227.29000000001;;;16.25;100.0
22775;BME280;11554;51.106;3.684;2024-03-29T12:10:00;99237.3;;;16.28;100.0
22775;BME280;11554;51.106;3.684;2024-03-29T12:15:00;99233.87;;;16.09;100.0
22775;BME280;11554;51.106;3.684;2024-03-29T12:20:00;99228.16;;;16.01;100.0
22775;BME280;11554;51.106;3.684;2024-03-29T12:25:00;99228.53;;;16.43;100.0
22775;BME280;11554;51.106;3.684;2024-03-29T12:30:00;99235.49;;;16.44;100.0
22775;BME280;11554;51.106;3.684;2024-03-29T12:35:06;99236.63;;;16.36;100.0
22775;BME280;11554;51.106;3.684;2024-03-29T12:40:00;99245.93;;;16.52;100.0
22775;BME280;11554;51.106;3.684;2024-03-29T12:45:00;99246.88;;;16.23;100.0
22775;BME280;11554;51.106;3.684;2024-03-29T12:50:00;99234.23;;;16.40;100.0
22775;BME280;11554;51.106;3.684;2024-03-29T12:55:00;99234.74;;;16.56;100.0
22775;BME280;11554;51.106;3.684;2024-03-29T13:00:00;99235.02;;;16.29;100.0
22775;BME280;11554;51.106;3.684;2024-03-29T13:05:00;99247.02;;;16.44;100.0
22775;BME280;11554;51.106;3.684;2024-03-29T13:10:00;99253.31;;;16.27;100.0
22775;BME280;11554;51.106;3.684;2024-03-29T13:15:01;99272.79999999999;;;16.32;100.0
22775;BME280;11554;51.106;3.684;2024-03-29T13:20:00;99263.7;;;16.65;96.95
22775;BME280;11554;51.106;3.684;2024-03-29T13:25:00;99270.03;;;16.40;100.0
22775;BME280;11554;51.106;3.684;2024-03-29T13:30:00;99273.86;;;16.40;100.0
22775;BME280;11554;51.106;3.684;2024-03-29T13:35:00;99284.12;;;16.73;100.0
22775;BME280;11554;51.106;3.684;2024-03-29T13:40:00;99272.06;;;16.44;99.82
22775;BME280;11554;51.106;3.684;2024-03-29T13:45:00;99283.96;;;16.45;100.0
22775;BME280;11554;51.106;3.684;2024-03-29T13:50:00;99293.91;;;15.90;100.0
22775;BME280;11554;51.106;3.684;2024-03-29T13:55:00;99309.65;;;15.62;100.0
22775;BME280;11554;51.106;3.684;2024-03-29T14:00:00;99295.64;;;15.58;100.0
22775;BME280;11554;51.106;3.684;2024-03-29T14:05:00;99288.97;;;15.47;100.0
22775;BME280;11554;51.106;3.684;2024-03-29T14:10:00;99299.87999999999;;;15.41;100.0
22775;BME280;11554;51.106;3.684;2024-03-29T14:15:00;99309.83;;;15.16;100.0
22775;BME280;11554;51.106;3.684;2024-03-29T14:20:00;99297.92;;;15.03;100.0
22775;BME280;11554;51.106;3.684;2024-03-29T14:25:00;99293.24;;;15.00;100.0
22775;BME280;11554;51.106;3.684;2024-03-29T14:30:00;99286.77;;;15.17;100.0
22775;BME280;11554;51.106;3.684;2024-03-29T14:35:00;99292.42;;;15.44;100.0
22775;BME280;11554;51.106;3.684;2024-03-29T14:40:00;99299.87999999999;;;15.66;100.0
22775;BME280;11554;51.106;3.684;2024-03-29T14:45:00;99300.3;;;15.88;100.0
22775;BME280;11554;51.106;3.684;2024-03-29T14:50:00;99294.09000000001;;;15.88;100.0
22775;BME280;11554;51.106;3.684;2024-03-29T14:55:00;99312.5;;;15.73;100.0
22775;BME280;11554;51.106;3.684;2024-03-29T15:00:00;99315.95999999999;;;15.56;100.0
22775;BME280;11554;51.106;3.684;2024-03-29T15:05:00;99306.03;;;15.62;100.0
22775;BME280;11554;51.106;3.684;2024-03-29T15:10:00;99302.95;;;15.71;100.0
22775;BME280;11554;51.106;3.684;2024-03-29T15:15:00;99322.52;;;15.79;100.0
22775;BME280;11554;51.106;3.684;2024-03-29T15:20:00;99317.56;;;15.68;100.0
22775;BME280;11554;51.106;3.684;2024-03-29T15:25:00;99321.34;;;15.45;100.0
22775;BME280;11554;51.106;3.684;2024-03-29T15:30:00;99326.53;;;15.57;100.0
22775;BME280;11554;51.106;3.684;2024-03-29T15:35:00;99307.69;;;15.45;100.0
22775;BME280;11554;51.106;3.684;2024-03-29T15:40:00;99307.03;;;15.16;100.0
22775;BME280;11554;51.106;3.684;2024-03-29T15:45:00;99311.99;;;15.03;100.0
22775;BME280;11554;51.106;3.684;2024-03-29T15:50:00;99317.94;;;14.92;100.0
22775;BME280;11554;51.106;3.684;2024-03-29T15:55:00;99320.06999999999;;;14.98;100.0
22775;BME280;11554;51.106;3.684;2024-03-29T16:00:00;99312.63;;;15.01;100.0
22775;BME280;11554;51.106;3.684;2024-03-29T16:05:00;99306.02;;;15.00;100.0
22775;BME280;11554;51.106;3.684;2024-03-29T16:10:00;99310.42;;;15.03;100.0
22775;BME280;11554;51.106;3.684;2024-03-29T16:15:00;99307.53;;;15.06;100.0
22775;BME280;11554;51.106;3.684;2024-03-29T16:20:00;99308.98;;;14.94;100.0
22775;BME280;11554;51.106;3.684;2024-03-29T16:25:00;99303.35;;;14.79;100.0
22775;BME280;11554;51.106;3.684;2024-03-29T16:30:00;99302.66;;;14.66;100.0
22775;BME280;11554;51.106;3.684;2024-03-29T16:35:00;99296.56;;;14.48;100.0
22775;BME280;11554;51.106;3.684;2024-03-29T16:40:00;99297.94;;;14.38;100.0
22775;BME280;11554;51.106;3.684;2024-03-29T16:45:00;99306.26;;;14.31;100.0
22775;BME280;11554;51.106;3.684;2024-03-29T16:50:00;99305.19;;;14.15;100.0
22775;BME280;11554;51.106;3.684;2024-03-29T16:55:00;99317.08;;;13.97;100.0
22775;BME280;11554;51.106;3.684;2024-03-29T17:00:00;99317.14;;;13.93;100.0
22775;BME280;11554;51.106;3.684;2024-03-29T17:05:00;99313.42;;;13.77;100.0
22775;BME280;11554;51.106;3.684;2024-03-29T17:10:00;99323.1;;;13.69;100.0
22775;BME280;11554;51.106;3.684;2024-03-29T17:15:00;99327.31;;;13.59;100.0
22775;BME280;11554;51.106;3.684;2024-03-29T17:20:00;99319.09000000001;;;13.48;100.0
22775;BME280;11554;51.106;3.684;2024-03-29T17:25:00;99305.88;;;13.38;100.0
22775;BME280;11554;51.106;3.684;2024-03-29T17:30:00;99310.85;;;13.25;100.0
22775;BME280;11554;51.106;3.684;2024-03-29T17:35:00;99311.65999999999;;;13.09;100.0
22775;BME280;11554;51.106;3.684;2024-03-29T17:40:00;99312.09999999999;;;12.95;100.0
22775;BME280;11554;51.106;3.684;2024-03-29T17:45:00;99313.76000000001;;;12.82;100.0
22775;BME280;11554;51.106;3.684;2024-03-29T17:50:00;99312.65;;;12.72;100.0
22775;BME280;11554;51.106;3.684;2024-03-29T17:55:00;99321.37;;;12.63;100.0
22775;BME280;11554;51.106;3.684;2024-03-29T18:00:00;99317.86;;;12.46;100.0
22775;BME280;11554;51.106;3.684;2024-03-29T18:05:00;99322.54000000001;;;12.28;100.0
22775;BME280;11554;51.106;3.684;2024-03-29T18:10:00;99318.03;;;12.16;100.0
22775;BME280;11554;51.106;3.684;2024-03-29T18:15:00;99324.37;;;12.12;100.0
22775;BME280;11554;51.106;3.684;2024-03-29T18:20:00;99329.67;;;12.07;100.0
22775;BME280;11554;51.106;3.684;2024-03-29T18:25:00;99331.56;;;12.00;100.0
22775;BME280;11554;51.106;3.684;2024-03-29T18:30:00;99328.43000000001;;;11.95;100.0
22775;BME280;11554;51.106;3.684;2024-03-29T18:35:00;99334.61;;;11.88;100.0
22775;BME280;11554;51.106;3.684;2024-03-29T18:40:00;99348.33;;;11.84;100.0
22775;BME280;11554;51.106;3.684;2024-03-29T18:45:00;99354.13;;;11.87;100.0
22775;BME280;11554;51.106;3.684;2024-03-29T18:50:00;99363.99;;;11.81;100.0
22775;BME280;11554;51.106;3.684;2024-03-29T18:55:00;99381.64;;;11.74;100.0
22775;BME280;11554;51.106;3.684;2024-03-29T19:00:00;99388.4;;;11.70;100.0
22775;BME280;11554;51.106;3.684;2024-03-29T19:05:00;99388.06;;;11.65;100.0
22775;BME280;11554;51.106;3.684;2024-03-29T19:10:00;99380.16;;;11.59;100.0
22775;BME280;11554;51.106;3.684;2024-03-29T19:15:00;99375.78;;;11.56;100.0
22775;BME280;11554;51.106;3.684;2024-03-29T19:20:00;99377.73999999999;;;11.53;100.0
22775;BME280;11554;51.106;3.684;2024-03-29T19:25:00;99378.38;;;11.54;100.0
22775;BME280;11554;51.106;3.684;2024-03-29T19:30:00;99379.89;;;11.58;100.0
22775;BME280;11554;51.106;3.684;2024-03-29T19:35:00;99383.77;;;11.57;100.0
22775;BME280;11554;51.106;3.684;2024-03-29T19:40:00;99397.45;;;11.56;100.0
22775;BME280;11554;51.106;3.684;2024-03-29T19:45:00;99398.51999999999;;;11.51;100.0
22775;BME280;11554;51.106;3.684;2024-03-29T19:50:00;99398.08;;;11.52;100.0
22775;BME280;11554;51.106;3.684;2024-03-29T19:55:00;99409.33;;;11.52;100.0
22775;BME280;11554;51.106;3.684;2024-03-29T20:00:00;99421.75;;;11.55;100.0
22775;BME280;11554;51.106;3.684;2024-03-29T20:05:00;99425.29;;;11.49;100.0
22775;BME280;11554;51.106;3.684;2024-03-29T20:10:00;99429.64;;;11.44;100.0
22775;BME280;11554;51.106;3.684;2024-03-29T20:15:01;99425.76000000001;;;11.50;100.0
22775;BME280;11554;51.106;3.684;2024-03-29T20:20:00;99429.74;;;11.56;100.0
22775;BME280;11554;51.106;3.684;2024-03-29T20:25:00;99431.68;;;11.57;100.0
22775;BME280;11554;51.106;3.684;2024-03-29T20:30:00;99439.04;;;11.58;100.0
22775;BME280;11554;51.106;3.684;2024-03-29T20:35:00;99441.31;;;11.59;100.0
22775;BME280;11554;51.106;3.684;2024-03-29T20:40:00;99444.58;;;11.57;100.0
22775;BME280;11554;51.106;3.684;2024-03-29T20:45:00;99458.51;;;11.59;100.0
22775;BME280;11554;51.106;3.684;2024-03-29T20:50:00;99467.21;;;11.60;100.0
22775;BME280;11554;51.106;3.684;2024-03-29T20:55:00;99471.91;;;11.58;100.0
22775;BME280;11554;51.106;3.684;2024-03-29T21:00:00;99484.89;;;11.52;100.0
22775;BME280;11554;51.106;3.684;2024-03-29T21:05:00;99496.77;;;11.51;100.0
22775;BME280;11554;51.106;3.684;2024-03-29T21:10:00;99500.8;;;11.50;100.0
22775;BME280;11554;51.106;3.684;2024-03-29T21:15:00;99511.31;;;11.51;100.0
22775;BME280;11554;51.106;3.684;2024-03-29T21:20:00;99529.67;;;11.49;100.0
22775;BME280;11554;51.106;3.684;2024-03-29T21:25:00;99528.95999999999;;;11.45;100.0
22775;BME280;11554;51.106;3.684;2024-03-29T21:30:00;99534.74;;;11.41;100.0
22775;BME280;11554;51.106;3.684;2024-03-29T21:35:00;99548.79;;;11.36;100.0
22775;BME280;11554;51.106;3.684;2024-03-29T21:40:00;99554.3;;;11.32;100.0
22775;BME280;11554;51.106;3.684;2024-03-29T21:45:00;99552.42;;;11.23;100.0
22775;BME280;11554;51.106;3.684;2024-03-29T21:50:00;99563.69;;;11.16;100.0
22775;BME280;11554;51.106;3.684;2024-03-29T21:55:00;99563.25;;;11.06;100.0
22775;BME280;11554;51.106;3.684;2024-03-29T22:00:00;99568.62999999999;;;10.97;100.0
22775;BME280;11554;51.106;3.684;2024-03-29T22:05:00;99570.75;;;10.87;100.0
22775;BME280;11554;51.106;3.684;2024-03-29T22:10:00;99571.15;;;10.79;100.0
22775;BME280;11554;51.106;3.684;2024-03-29T22:15:00;99579.98999999999;;;10.74;100.0
22775;BME280;11554;51.106;3.684;2024-03-29T22:20:00;99579.39;;;10.65;100.0
22775;BME280;11554;51.106;3.684;2024-03-29T22:25:00;99590.08;;;10.53;100.0
22775;BME280;11554;51.106;3.684;2024-03-29T22:30:00;99596.15;;;10.38;100.0
22775;BME280;11554;51.106;3.684;2024-03-29T22:35:00;99600.28;;;10.27;100.0
22775;BME280;11554;51.106;3.684;2024-03-29T22:40:00;99600.73;;;10.21;100.0
22775;BME280;11554;51.106;3.684;2024-03-29T22:45:00;99597.38;;;10.11;100.0
22775;BME280;11554;51.106;3.684;2024-03-29T22:50:00;99591.17;;;10.04;100.0
22775;BME280;11554;51.106;3.684;2024-03-29T22:55:00;99586.03;;;9.99;100.0
22775;BME280;11554;51.106;3.684;2024-03-29T23:00:00;99580.7;;;9.93;100.0
22775;BME280;11554;51.106;3.684;2024-03-29T23:05:00;99578.93000000001;;;9.85;100.0
22775;BME280;11554;51.106;3.684;2024-03-29T23:10:00;99580.81;;;9.77;100.0
22775;BME280;11554;51.106;3.684;2024-03-29T23:15:00;99580.88;;;9.72;100.0
22775;BME280;11554;51.106;3.684;2024-03-29T23:20:00;99579.74;;;9.62;100.0
22775;BME280;11554;51.106;3.684;2024-03-29T23:25:00;99577.29000000001;;;9.53;100.0
22775;BME280;11554;51.106;3.684;2024-03-29T23:30:00;99572.78;;;9.51;100.0
22775;BME280;11554;51.106;3.684;2024-03-29T23:35:00;99561.87999999999;;;9.47;100.0
22775;BME280;11554;51.106;3.684;2024-03-29T23:40:00;99553.44;;;9.41;100.0
22775;BME280;11554;51.106;3.684;2024-03-29T23:45:00;99545.23000000001;;;9.32;100.0
22775;BME280;11554;51.106;3.684;2024-03-29T23:50:00;99532.28;;;9.21;100.0
22775;BME280;11554;51.106;3.684;2024-03-29T23:55:01;99532.86;;;9.14;100.0
